Corbin, Kentucky
Current Conditions -  °F | °C
As of 1:53 AM on Wednesday 26 Nov 2014 (Local Time) from KLOZ Reporting Station
Clear Clear  
Wind Chill: 35°   Ceiling: Unl
Heat Index: 40°   Visibility: 10mi
Dew Point: 27°   Wind: 7mph
Humidity: 60%   Direction: 350°N
Pressure: 30.06"   Gusts: NA
Location:  36.94°N, 84.09°W
Report Text: KLOZ 260653Z AUTO 35006KT 10SM CLR 04/M03 A3006 RMK AO2 SLP180 T00441028
Loading
Personal Weather Stations






























Interactive Weather Map New forecast layout! Learn more

10-Day Weather Forecast

Advertisements
Track Severe Weather on mobile